createdAt,value
2023-01-23T00:29:33.428Z,23.00
2023-01-23T00:32:00.575Z,30.60
2023-01-23T00:34:30.599Z,36.30
2023-01-23T00:36:57.732Z,34.00
2023-01-23T00:39:25.096Z,35.90
2023-01-23T00:41:54.017Z,34.20
2023-01-23T00:44:22.504Z,31.30
2023-01-23T00:46:50.373Z,33.00
2023-01-23T00:49:18.221Z,33.70
2023-01-23T00:51:46.097Z,34.50
2023-01-23T00:54:13.054Z,27.70
2023-01-23T00:56:39.994Z,30.70
2023-01-23T00:59:11.798Z,35.00
2023-01-23T01:01:38.962Z,34.00
2023-01-23T01:04:06.478Z,31.70
2023-01-23T01:06:33.514Z,38.80
2023-01-23T01:09:00.478Z,29.90
2023-01-23T01:11:27.376Z,32.50
2023-01-23T01:13:54.303Z,37.40
2023-01-23T01:16:21.284Z,27.70
2023-01-23T01:18:48.215Z,30.30
2023-01-23T01:21:15.162Z,25.80
2023-01-23T01:23:42.158Z,27.20
2023-01-23T01:26:09.196Z,25.70
2023-01-23T01:28:37.050Z,29.20
2023-01-23T01:31:12.975Z,28.50
2023-01-23T01:33:40.220Z,30.90
2023-01-23T01:36:15.423Z,28.20
2023-01-23T01:38:42.591Z,28.00
2023-01-23T01:41:10.052Z,25.60
2023-01-23T01:43:37.073Z,22.60
2023-01-23T01:46:13.445Z,20.60
2023-01-23T01:48:48.228Z,19.40
2023-01-23T01:51:50.698Z,19.20
2023-01-23T01:54:40.606Z,22.10
2023-01-23T01:57:13.599Z,15.10
2023-01-23T02:00:10.418Z,14.00
2023-01-23T02:02:51.340Z,15.80
2023-01-23T02:05:23.876Z,18.30
2023-01-23T02:07:57.609Z,20.00
2023-01-23T02:10:24.686Z,18.30
2023-01-23T02:12:52.069Z,13.00
2023-01-23T02:15:20.340Z,16.40
2023-01-23T02:17:48.493Z,15.20
2023-01-23T02:20:24.787Z,16.30
2023-01-23T02:22:59.529Z,16.30
2023-01-23T02:25:44.811Z,19.30
2023-01-23T02:28:15.913Z,19.20
2023-01-23T02:30:43.709Z,19.20
2023-01-23T02:33:30.913Z,22.90
2023-01-23T02:35:59.232Z,17.40
2023-01-23T02:38:31.599Z,18.50
2023-01-23T02:41:01.057Z,22.80
2023-01-23T02:43:34.763Z,20.70
2023-01-23T02:46:03.621Z,19.80
2023-01-23T02:48:30.675Z,21.00
2023-01-23T02:50:58.944Z,18.30
2023-01-23T02:53:27.061Z,13.90
2023-01-23T02:55:54.198Z,19.00
2023-01-23T02:58:40.967Z,19.90
2023-01-23T03:04:06.693Z,21.10
2023-01-23T03:06:39.274Z,18.60
2023-01-23T03:09:09.169Z,21.80
2023-01-23T03:11:36.672Z,21.10
2023-01-23T03:14:04.034Z,20.40
2023-01-23T03:16:30.959Z,26.50
2023-01-23T03:18:59.106Z,15.70
2023-01-23T03:21:25.895Z,14.90
2023-01-23T03:23:52.662Z,13.20
2023-01-23T03:26:19.694Z,16.60
2023-01-23T03:29:06.294Z,14.60
2023-01-23T03:31:33.188Z,11.70
2023-01-23T03:34:00.493Z,15.80
2023-01-23T03:36:28.063Z,12.10
2023-01-23T03:39:13.670Z,11.30
2023-01-23T03:41:42.458Z,16.50
2023-01-23T03:44:09.445Z,14.30
2023-01-23T03:46:36.372Z,13.30
2023-01-23T03:49:03.595Z,13.30
2023-01-23T03:51:30.392Z,14.50
2023-01-23T03:53:57.382Z,16.40
2023-01-23T03:56:25.345Z,15.30
2023-01-23T04:02:05.114Z,21.60
2023-01-23T04:04:33.707Z,25.00
2023-01-23T04:07:00.903Z,21.10
2023-01-23T04:09:28.393Z,27.30
2023-01-23T04:11:56.180Z,30.00
2023-01-23T04:14:23.393Z,25.10
2023-01-23T04:16:50.547Z,28.00
2023-01-23T04:19:21.979Z,26.00
2023-01-23T04:21:49.264Z,24.50
2023-01-23T04:24:16.660Z,22.10
2023-01-23T04:26:44.073Z,22.10
2023-01-23T04:29:11.059Z,26.90
2023-01-23T04:31:54.595Z,23.70
2023-01-23T04:34:22.097Z,25.10
2023-01-23T04:36:49.756Z,25.80
2023-01-23T04:39:16.580Z,21.10
2023-01-23T04:41:44.822Z,26.10
2023-01-23T04:44:25.245Z,26.10
2023-01-23T04:47:05.707Z,23.40
2023-01-23T04:49:32.589Z,19.70
2023-01-23T04:51:59.433Z,24.10
2023-01-23T04:54:28.340Z,19.30
2023-01-23T04:56:55.207Z,23.10
2023-01-23T04:59:23.152Z,29.50
2023-01-23T05:01:50.918Z,24.80
2023-01-23T05:04:17.983Z,22.80
2023-01-23T05:06:45.473Z,22.50
2023-01-23T05:09:13.683Z,24.60
2023-01-23T05:11:46.176Z,27.00
2023-01-23T05:14:13.062Z,26.90
2023-01-23T05:16:40.635Z,25.60
2023-01-23T05:19:27.655Z,29.80
2023-01-23T05:21:54.976Z,26.00
2023-01-23T05:27:40.113Z,25.80
2023-01-23T05:30:08.911Z,25.30
2023-01-23T05:32:36.129Z,32.90
2023-01-23T05:35:12.149Z,30.70
2023-01-23T05:37:40.087Z,29.60
2023-01-23T05:40:10.639Z,25.90
2023-01-23T05:42:57.715Z,26.60
2023-01-23T05:45:54.289Z,25.90
2023-01-23T05:48:27.462Z,25.60
2023-01-23T05:50:54.386Z,25.70
2023-01-23T05:53:21.381Z,28.10
2023-01-23T05:55:48.412Z,25.70
2023-01-23T05:58:16.087Z,35.50
2023-01-23T06:01:09.394Z,26.90
2023-01-23T10:31:44.519Z,20.50
2023-01-23T10:34:19.953Z,23.60
2023-01-23T10:37:05.635Z,25.10
2023-01-23T10:40:02.876Z,20.90
2023-01-23T10:42:29.783Z,22.20
2023-01-23T10:44:56.738Z,23.50
2023-01-23T10:47:33.137Z,23.20
2023-01-23T10:50:01.415Z,21.80
2023-01-23T10:52:29.525Z,23.30
2023-01-23T10:54:56.426Z,24.00
2023-01-23T10:57:31.265Z,20.20
2023-01-23T11:00:04.801Z,19.30
2023-01-23T11:02:33.763Z,18.30
2023-01-23T11:05:01.136Z,20.10
2023-01-23T11:07:45.574Z,18.40
2023-01-23T11:10:12.386Z,21.60
2023-01-23T11:12:50.512Z,26.50
2023-01-23T11:15:47.502Z,24.10
2023-01-23T11:18:25.491Z,24.10
2023-01-23T11:20:55.282Z,32.30
2023-01-23T11:23:22.573Z,24.60
2023-01-23T11:25:50.210Z,27.50
2023-01-23T11:28:27.554Z,22.90
2023-01-23T11:31:11.504Z,21.20
2023-01-23T11:34:06.604Z,26.00
2023-01-23T11:36:48.740Z,29.40
2023-01-23T11:39:18.326Z,21.70
2023-01-23T11:41:45.511Z,25.90
2023-01-23T11:44:23.034Z,35.10
2023-01-23T11:46:59.235Z,28.60
2023-01-23T11:49:30.676Z,30.90
2023-01-23T11:52:18.082Z,34.60
2023-01-23T11:54:44.894Z,33.90
2023-01-23T11:57:31.533Z,39.90
2023-01-23T12:00:01.477Z,34.20
2023-01-23T12:02:38.235Z,32.50
2023-01-23T12:05:08.758Z,33.50
2023-01-23T12:07:44.689Z,34.40
2023-01-23T12:10:18.286Z,37.40
2023-01-23T12:12:51.730Z,31.60
2023-01-23T12:15:31.551Z,42.10
2023-01-23T12:18:21.927Z,39.20
2023-01-23T12:21:15.200Z,34.20
2023-01-23T12:23:45.752Z,31.50
2023-01-23T12:26:12.881Z,34.10
2023-01-23T12:28:42.489Z,34.00
2023-01-23T12:31:18.787Z,33.30
2023-01-23T12:33:54.402Z,31.10
2023-01-23T12:36:44.168Z,31.90
2023-01-23T12:39:29.472Z,31.70
2023-01-23T12:42:03.890Z,35.40
2023-01-23T12:44:32.649Z,37.60
2023-01-23T12:47:01.917Z,37.00
2023-01-23T12:49:45.095Z,38.10
2023-01-23T12:52:21.796Z,35.90
2023-01-23T12:54:51.650Z,50.90
2023-01-23T12:57:52.242Z,37.00
2023-01-23T13:00:28.834Z,40.00
2023-01-23T13:03:00.446Z,41.80
2023-01-23T13:08:03.650Z,41.40
2023-01-23T13:10:55.549Z,36.20
2023-01-23T13:16:09.614Z,48.90
2023-01-23T13:18:56.410Z,38.70
2023-01-23T13:21:41.875Z,44.30
2023-01-23T13:24:57.010Z,49.90
2023-01-23T13:27:42.564Z,44.50
2023-01-23T13:30:31.996Z,44.20
2023-01-23T13:33:05.889Z,52.20
2023-01-23T13:35:45.027Z,56.50
2023-01-23T13:38:26.393Z,57.20
2023-01-23T13:41:14.664Z,47.40
2023-01-23T13:43:42.456Z,58.40
2023-01-23T13:46:12.761Z,54.50
2023-01-23T15:54:53.615Z,65.40
2023-01-23T15:57:21.622Z,55.00
2023-01-23T15:59:48.940Z,61.60
2023-01-23T16:02:34.431Z,76.90
2023-01-23T16:05:02.929Z,43.00
2023-01-23T16:07:34.980Z,47.70
2023-01-23T16:10:17.804Z,40.60
2023-01-23T16:12:48.237Z,41.00
2023-01-23T19:23:57.957Z,91.30
2023-01-23T19:26:35.114Z,90.00
2023-01-23T19:29:19.538Z,84.10
2023-01-23T19:32:02.927Z,79.80
